sensor_id;sensor_type;location;lat;lon;timestamp;P1;durP1;ratioP1;P2;durP2;ratioP2
64651;SDS011;51062;45.120;37.660;2022-09-03T00:02:04;3.88;;;1.27;;
64651;SDS011;51062;45.120;37.660;2022-09-03T00:07:56;11.80;;;1.63;;
64651;SDS011;51062;45.120;37.660;2022-09-03T00:10:58;3.85;;;1.38;;
64651;SDS011;51062;45.120;37.660;2022-09-03T00:13:35;3.67;;;1.10;;
64651;SDS011;51062;45.120;37.660;2022-09-03T00:16:44;8.63;;;1.27;;
64651;SDS011;51062;45.120;37.660;2022-09-03T00:19:17;2.50;;;1.23;;
64651;SDS011;51062;45.120;37.660;2022-09-03T00:21:54;16.00;;;1.40;;
64651;SDS011;51062;45.120;37.660;2022-09-03T00:24:41;3.97;;;1.25;;
64651;SDS011;51062;45.120;37.660;2022-09-03T00:27:14;4.32;;;1.25;;
64651;SDS011;51062;45.120;37.660;2022-09-03T00:29:50;4.20;;;1.50;;
64651;SDS011;51062;45.120;37.660;2022-09-03T00:32:44;6.15;;;1.40;;
64651;SDS011;51062;45.120;37.660;2022-09-03T00:37:59;5.13;;;1.15;;
64651;SDS011;51062;45.120;37.660;2022-09-03T00:52:14;6.78;;;1.20;;
64651;SDS011;51062;45.120;37.660;2022-09-03T01:08:31;7.80;;;1.23;;
64651;SDS011;51062;45.120;37.660;2022-09-03T01:11:27;8.00;;;1.20;;
64651;SDS011;51062;45.120;37.660;2022-09-03T01:14:30;8.40;;;1.60;;
64651;SDS011;51062;45.120;37.660;2022-09-03T01:25:07;4.28;;;1.20;;
64651;SDS011;51062;45.120;37.660;2022-09-03T01:32:58;6.22;;;1.20;;
64651;SDS011;51062;45.120;37.660;2022-09-03T01:35:52;4.40;;;1.20;;
64651;SDS011;51062;45.120;37.660;2022-09-03T01:46:47;5.07;;;1.27;;
64651;SDS011;51062;45.120;37.660;2022-09-03T01:49:30;3.95;;;1.33;;
64651;SDS011;51062;45.120;37.660;2022-09-03T01:52:11;6.97;;;1.60;;
64651;SDS011;51062;45.120;37.660;2022-09-03T01:54:44;11.48;;;1.40;;
64651;SDS011;51062;45.120;37.660;2022-09-03T01:57:23;14.52;;;1.63;;
64651;SDS011;51062;45.120;37.660;2022-09-03T02:00:29;8.88;;;1.13;;
64651;SDS011;51062;45.120;37.660;2022-09-03T02:03:01;9.73;;;1.27;;
64651;SDS011;51062;45.120;37.660;2022-09-03T02:05:31;4.90;;;1.30;;
64651;SDS011;51062;45.120;37.660;2022-09-03T02:08:07;7.45;;;1.13;;
64651;SDS011;51062;45.120;37.660;2022-09-03T02:13:30;12.57;;;1.60;;
64651;SDS011;51062;45.120;37.660;2022-09-03T02:16:13;3.95;;;2.35;;
64651;SDS011;51062;45.120;37.660;2022-09-03T02:18:45;10.10;;;1.35;;
64651;SDS011;51062;45.120;37.660;2022-09-03T02:21:17;4.60;;;1.50;;
64651;SDS011;51062;45.120;37.660;2022-09-03T02:23:45;2.70;;;1.33;;
64651;SDS011;51062;45.120;37.660;2022-09-03T02:26:16;3.53;;;1.10;;
64651;SDS011;51062;45.120;37.660;2022-09-03T02:28:47;8.32;;;1.58;;
64651;SDS011;51062;45.120;37.660;2022-09-03T02:31:35;3.90;;;1.25;;
64651;SDS011;51062;45.120;37.660;2022-09-03T02:34:02;3.20;;;1.23;;
64651;SDS011;51062;45.120;37.660;2022-09-03T02:36:33;5.07;;;1.20;;
64651;SDS011;51062;45.120;37.660;2022-09-03T02:39:04;11.55;;;1.58;;
64651;SDS011;51062;45.120;37.660;2022-09-03T02:41:33;11.15;;;1.42;;
64651;SDS011;51062;45.120;37.660;2022-09-03T02:44:05;3.53;;;1.33;;
64651;SDS011;51062;45.120;37.660;2022-09-03T02:46:55;4.68;;;1.10;;
64651;SDS011;51062;45.120;37.660;2022-09-03T02:49:29;2.42;;;1.10;;
64651;SDS011;51062;45.120;37.660;2022-09-03T02:51:58;5.93;;;0.95;;
64651;SDS011;51062;45.120;37.660;2022-09-03T02:54:26;11.60;;;1.50;;
64651;SDS011;51062;45.120;37.660;2022-09-03T02:56:53;2.53;;;1.10;;
64651;SDS011;51062;45.120;37.660;2022-09-03T02:59:19;6.70;;;1.33;;
64651;SDS011;51062;45.120;37.660;2022-09-03T03:01:47;5.40;;;1.20;;
64651;SDS011;51062;45.120;37.660;2022-09-03T03:04:14;7.60;;;1.38;;
64651;SDS011;51062;45.120;37.660;2022-09-03T03:06:42;6.82;;;1.27;;
64651;SDS011;51062;45.120;37.660;2022-09-03T03:09:08;7.13;;;1.30;;
64651;SDS011;51062;45.120;37.660;2022-09-03T03:11:35;9.82;;;1.40;;
64651;SDS011;51062;45.120;37.660;2022-09-03T03:14:03;16.13;;;2.78;;
64651;SDS011;51062;45.120;37.660;2022-09-03T03:16:29;14.40;;;2.88;;
64651;SDS011;51062;45.120;37.660;2022-09-03T03:18:56;7.78;;;1.63;;
64651;SDS011;51062;45.120;37.660;2022-09-03T03:21:23;6.72;;;1.27;;
64651;SDS011;51062;45.120;37.660;2022-09-03T03:23:52;6.70;;;2.28;;
64651;SDS011;51062;45.120;37.660;2022-09-03T03:26:20;14.50;;;1.60;;
64651;SDS011;51062;45.120;37.660;2022-09-03T03:28:54;9.02;;;1.52;;
64651;SDS011;51062;45.120;37.660;2022-09-03T03:31:22;12.10;;;1.50;;
64651;SDS011;51062;45.120;37.660;2022-09-03T03:33:54;4.80;;;1.27;;
64651;SDS011;51062;45.120;37.660;2022-09-03T03:36:30;10.38;;;1.25;;
64651;SDS011;51062;45.120;37.660;2022-09-03T03:38:58;8.95;;;1.48;;
64651;SDS011;51062;45.120;37.660;2022-09-03T03:41:26;4.15;;;1.27;;
64651;SDS011;51062;45.120;37.660;2022-09-03T03:43:56;3.72;;;1.15;;
64651;SDS011;51062;45.120;37.660;2022-09-03T03:46:24;8.50;;;1.23;;
64651;SDS011;51062;45.120;37.660;2022-09-03T03:48:56;10.50;;;1.50;;
64651;SDS011;51062;45.120;37.660;2022-09-03T03:51:23;7.00;;;1.73;;
64651;SDS011;51062;45.120;37.660;2022-09-03T03:54:09;2.85;;;1.50;;
64651;SDS011;51062;45.120;37.660;2022-09-03T03:56:35;10.00;;;1.48;;
64651;SDS011;51062;45.120;37.660;2022-09-03T03:59:01;12.45;;;1.50;;
64651;SDS011;51062;45.120;37.660;2022-09-03T04:01:28;2.90;;;1.02;;
64651;SDS011;51062;45.120;37.660;2022-09-03T04:03:55;3.90;;;1.30;;
64651;SDS011;51062;45.120;37.660;2022-09-03T04:06:22;5.82;;;1.00;;
64651;SDS011;51062;45.120;37.660;2022-09-03T04:08:49;6.45;;;1.83;;
64651;SDS011;51062;45.120;37.660;2022-09-03T04:11:16;10.45;;;1.40;;
64651;SDS011;51062;45.120;37.660;2022-09-03T04:13:45;5.70;;;1.38;;
64651;SDS011;51062;45.120;37.660;2022-09-03T04:16:13;17.08;;;2.08;;
64651;SDS011;51062;45.120;37.660;2022-09-03T04:18:41;8.95;;;1.60;;
64651;SDS011;51062;45.120;37.660;2022-09-03T04:21:08;13.88;;;1.48;;
64651;SDS011;51062;45.120;37.660;2022-09-03T04:23:37;10.05;;;1.50;;
64651;SDS011;51062;45.120;37.660;2022-09-03T04:26:05;5.03;;;1.13;;
64651;SDS011;51062;45.120;37.660;2022-09-03T04:28:32;3.55;;;1.23;;
64651;SDS011;51062;45.120;37.660;2022-09-03T04:31:06;4.70;;;1.23;;
64651;SDS011;51062;45.120;37.660;2022-09-03T04:36:11;4.13;;;1.75;;
64651;SDS011;51062;45.120;37.660;2022-09-03T04:38:43;4.47;;;1.42;;
64651;SDS011;51062;45.120;37.660;2022-09-03T04:41:12;10.43;;;1.33;;
64651;SDS011;51062;45.120;37.660;2022-09-03T04:43:50;13.30;;;1.85;;
64651;SDS011;51062;45.120;37.660;2022-09-03T04:46:17;7.13;;;1.60;;
64651;SDS011;51062;45.120;37.660;2022-09-03T04:48:48;5.63;;;2.28;;
64651;SDS011;51062;45.120;37.660;2022-09-03T04:51:17;3.22;;;1.50;;
64651;SDS011;51062;45.120;37.660;2022-09-03T04:53:46;25.08;;;2.55;;
64651;SDS011;51062;45.120;37.660;2022-09-03T04:56:18;7.32;;;1.42;;
64651;SDS011;51062;45.120;37.660;2022-09-03T04:58:46;12.18;;;1.40;;
64651;SDS011;51062;45.120;37.660;2022-09-03T05:01:17;5.05;;;1.40;;
64651;SDS011;51062;45.120;37.660;2022-09-03T05:03:45;4.70;;;0.80;;
64651;SDS011;51062;45.120;37.660;2022-09-03T05:06:12;7.68;;;1.33;;
64651;SDS011;51062;45.120;37.660;2022-09-03T05:08:41;7.28;;;1.10;;
64651;SDS011;51062;45.120;37.660;2022-09-03T05:11:10;9.32;;;0.90;;
64651;SDS011;51062;45.120;37.660;2022-09-03T05:13:36;9.55;;;1.65;;
64651;SDS011;51062;45.120;37.660;2022-09-03T05:16:04;5.50;;;1.27;;
64651;SDS011;51062;45.120;37.660;2022-09-03T05:18:31;5.57;;;1.38;;
64651;SDS011;51062;45.120;37.660;2022-09-03T05:21:00;15.30;;;1.55;;
64651;SDS011;51062;45.120;37.660;2022-09-03T05:23:34;6.32;;;1.00;;
64651;SDS011;51062;45.120;37.660;2022-09-03T05:26:03;1.63;;;1.02;;
64651;SDS011;51062;45.120;37.660;2022-09-03T05:28:34;17.42;;;1.67;;
64651;SDS011;51062;45.120;37.660;2022-09-03T05:33:37;9.52;;;1.75;;
64651;SDS011;51062;45.120;37.660;2022-09-03T05:36:05;19.40;;;1.65;;
64651;SDS011;51062;45.120;37.660;2022-09-03T05:38:33;9.60;;;1.30;;
64651;SDS011;51062;45.120;37.660;2022-09-03T05:41:00;4.05;;;0.93;;
64651;SDS011;51062;45.120;37.660;2022-09-03T05:43:28;10.00;;;1.45;;
64651;SDS011;51062;45.120;37.660;2022-09-03T05:45:58;10.07;;;1.40;;
64651;SDS011;51062;45.120;37.660;2022-09-03T05:48:33;10.07;;;1.17;;
64651;SDS011;51062;45.120;37.660;2022-09-03T05:51:10;4.43;;;1.00;;
64651;SDS011;51062;45.120;37.660;2022-09-03T05:53:48;5.57;;;1.13;;
64651;SDS011;51062;45.120;37.660;2022-09-03T05:56:38;10.02;;;1.65;;
64651;SDS011;51062;45.120;37.660;2022-09-03T05:59:06;1.98;;;0.95;;
64651;SDS011;51062;45.120;37.660;2022-09-03T06:01:36;6.07;;;1.52;;
64651;SDS011;51062;45.120;37.660;2022-09-03T06:04:09;7.20;;;1.10;;
64651;SDS011;51062;45.120;37.660;2022-09-03T06:06:38;11.02;;;1.40;;
64651;SDS011;51062;45.120;37.660;2022-09-03T06:09:13;10.27;;;1.52;;
64651;SDS011;51062;45.120;37.660;2022-09-03T06:11:47;3.58;;;1.05;;
64651;SDS011;51062;45.120;37.660;2022-09-03T06:14:14;12.75;;;1.52;;
64651;SDS011;51062;45.120;37.660;2022-09-03T06:16:41;5.75;;;1.20;;
64651;SDS011;51062;45.120;37.660;2022-09-03T06:19:09;4.95;;;1.65;;
64651;SDS011;51062;45.120;37.660;2022-09-03T06:21:37;3.55;;;1.20;;
64651;SDS011;51062;45.120;37.660;2022-09-03T06:24:07;7.78;;;1.38;;
64651;SDS011;51062;45.120;37.660;2022-09-03T06:26:38;2.75;;;1.25;;
64651;SDS011;51062;45.120;37.660;2022-09-03T06:29:04;3.33;;;1.13;;
64651;SDS011;51062;45.120;37.660;2022-09-03T06:31:31;8.90;;;1.30;;
64651;SDS011;51062;45.120;37.660;2022-09-03T06:33:57;6.20;;;1.20;;
64651;SDS011;51062;45.120;37.660;2022-09-03T06:36:23;5.30;;;1.45;;
64651;SDS011;51062;45.120;37.660;2022-09-03T06:38:51;13.18;;;1.23;;
64651;SDS011;51062;45.120;37.660;2022-09-03T06:41:20;12.75;;;1.55;;
64651;SDS011;51062;45.120;37.660;2022-09-03T06:43:56;35.15;;;3.50;;
64651;SDS011;51062;45.120;37.660;2022-09-03T06:46:29;4.32;;;1.25;;
64651;SDS011;51062;45.120;37.660;2022-09-03T06:48:57;5.35;;;1.27;;
64651;SDS011;51062;45.120;37.660;2022-09-03T06:51:24;9.50;;;1.48;;
64651;SDS011;51062;45.120;37.660;2022-09-03T06:53:53;11.88;;;1.60;;
64651;SDS011;51062;45.120;37.660;2022-09-03T06:56:24;6.20;;;1.27;;
64651;SDS011;51062;45.120;37.660;2022-09-03T06:58:54;9.30;;;1.50;;
64651;SDS011;51062;45.120;37.660;2022-09-03T07:01:25;12.20;;;1.60;;
64651;SDS011;51062;45.120;37.660;2022-09-03T07:04:04;9.10;;;1.25;;
64651;SDS011;51062;45.120;37.660;2022-09-03T07:06:31;7.03;;;1.40;;
64651;SDS011;51062;45.120;37.660;2022-09-03T07:09:01;6.68;;;1.00;;
64651;SDS011;51062;45.120;37.660;2022-09-03T07:11:28;4.95;;;1.40;;
64651;SDS011;51062;45.120;37.660;2022-09-03T07:13:56;6.47;;;1.40;;
64651;SDS011;51062;45.120;37.660;2022-09-03T07:16:24;5.22;;;1.13;;
64651;SDS011;51062;45.120;37.660;2022-09-03T07:19:01;7.38;;;1.38;;
64651;SDS011;51062;45.120;37.660;2022-09-03T07:21:30;6.82;;;1.13;;
64651;SDS011;51062;45.120;37.660;2022-09-03T07:23:58;9.63;;;1.58;;
64651;SDS011;51062;45.120;37.660;2022-09-03T07:26:25;7.72;;;1.13;;
64651;SDS011;51062;45.120;37.660;2022-09-03T07:28:55;6.43;;;1.20;;
64651;SDS011;51062;45.120;37.660;2022-09-03T07:31:32;3.80;;;1.33;;
64651;SDS011;51062;45.120;37.660;2022-09-03T07:34:04;9.88;;;2.13;;
64651;SDS011;51062;45.120;37.660;2022-09-03T07:36:38;4.82;;;1.52;;
64651;SDS011;51062;45.120;37.660;2022-09-03T07:39:07;6.05;;;1.45;;
64651;SDS011;51062;45.120;37.660;2022-09-03T07:41:36;10.38;;;1.58;;
64651;SDS011;51062;45.120;37.660;2022-09-03T07:44:02;3.05;;;1.30;;
64651;SDS011;51062;45.120;37.660;2022-09-03T07:46:33;9.43;;;1.50;;
64651;SDS011;51062;45.120;37.660;2022-09-03T07:49:01;2.92;;;1.30;;
64651;SDS011;51062;45.120;37.660;2022-09-03T07:51:29;7.47;;;1.80;;
64651;SDS011;51062;45.120;37.660;2022-09-03T07:53:58;5.38;;;1.30;;
64651;SDS011;51062;45.120;37.660;2022-09-03T07:56:26;9.43;;;1.60;;
64651;SDS011;51062;45.120;37.660;2022-09-03T07:58:56;9.18;;;1.30;;
64651;SDS011;51062;45.120;37.660;2022-09-03T08:01:23;8.35;;;1.40;;
64651;SDS011;51062;45.120;37.660;2022-09-03T08:03:51;6.47;;;1.42;;
64651;SDS011;51062;45.120;37.660;2022-09-03T08:06:18;12.85;;;1.80;;
64651;SDS011;51062;45.120;37.660;2022-09-03T08:08:46;7.22;;;1.50;;
64651;SDS011;51062;45.120;37.660;2022-09-03T08:11:14;14.05;;;1.50;;
64651;SDS011;51062;45.120;37.660;2022-09-03T08:13:46;2.17;;;1.15;;
64651;SDS011;51062;45.120;37.660;2022-09-03T08:16:14;22.48;;;1.90;;
64651;SDS011;51062;45.120;37.660;2022-09-03T08:18:45;5.88;;;1.55;;
64651;SDS011;51062;45.120;37.660;2022-09-03T08:21:12;10.30;;;1.67;;
64651;SDS011;51062;45.120;37.660;2022-09-03T08:23:42;9.68;;;1.55;;
64651;SDS011;51062;45.120;37.660;2022-09-03T08:26:10;18.30;;;2.10;;
64651;SDS011;51062;45.120;37.660;2022-09-03T08:28:37;11.63;;;1.52;;
64651;SDS011;51062;45.120;37.660;2022-09-03T08:31:07;2.33;;;1.40;;
64651;SDS011;51062;45.120;37.660;2022-09-03T08:33:57;6.88;;;1.67;;
64651;SDS011;51062;45.120;37.660;2022-09-03T08:36:26;41.42;;;2.53;;
64651;SDS011;51062;45.120;37.660;2022-09-03T08:38:57;6.50;;;1.75;;
64651;SDS011;51062;45.120;37.660;2022-09-03T08:52:40;8.77;;;2.08;;
64651;SDS011;51062;45.120;37.660;2022-09-03T08:55:27;3.35;;;1.38;;
64651;SDS011;51062;45.120;37.660;2022-09-03T08:57:59;8.07;;;2.03;;
64651;SDS011;51062;45.120;37.660;2022-09-03T09:00:28;6.68;;;1.95;;
64651;SDS011;51062;45.120;37.660;2022-09-03T09:22:26;10.68;;;1.55;;
64651;SDS011;51062;45.120;37.660;2022-09-03T09:25:00;9.48;;;1.83;;
64651;SDS011;51062;45.120;37.660;2022-09-03T09:27:30;6.50;;;1.60;;
64651;SDS011;51062;45.120;37.660;2022-09-03T09:29:57;15.20;;;1.90;;
64651;SDS011;51062;45.120;37.660;2022-09-03T09:32:26;9.10;;;1.27;;
64651;SDS011;51062;45.120;37.660;2022-09-03T09:34:52;27.38;;;2.67;;
64651;SDS011;51062;45.120;37.660;2022-09-03T09:37:19;11.43;;;1.85;;
64651;SDS011;51062;45.120;37.660;2022-09-03T09:39:55;8.52;;;2.40;;
64651;SDS011;51062;45.120;37.660;2022-09-03T09:42:23;80.82;;;3.78;;
64651;SDS011;51062;45.120;37.660;2022-09-03T09:44:50;16.63;;;2.20;;
64651;SDS011;51062;45.120;37.660;2022-09-03T09:49:55;9.65;;;1.95;;
64651;SDS011;51062;45.120;37.660;2022-09-03T09:52:26;4.15;;;1.35;;
64651;SDS011;51062;45.120;37.660;2022-09-03T09:55:05;20.85;;;2.03;;
64651;SDS011;51062;45.120;37.660;2022-09-03T09:57:34;16.10;;;2.30;;
64651;SDS011;51062;45.120;37.660;2022-09-03T10:00:05;7.78;;;1.60;;
64651;SDS011;51062;45.120;37.660;2022-09-03T10:02:39;8.70;;;1.77;;
64651;SDS011;51062;45.120;37.660;2022-09-03T10:05:30;7.75;;;1.65;;
64651;SDS011;51062;45.120;37.660;2022-09-03T10:08:23;9.88;;;1.70;;
64651;SDS011;51062;45.120;37.660;2022-09-03T10:10:49;15.57;;;1.90;;
64651;SDS011;51062;45.120;37.660;2022-09-03T10:13:25;6.00;;;1.45;;
64651;SDS011;51062;45.120;37.660;2022-09-03T10:16:05;3.33;;;1.40;;
64651;SDS011;51062;45.120;37.660;2022-09-03T10:18:39;9.48;;;1.67;;
64651;SDS011;51062;45.120;37.660;2022-09-03T10:21:28;9.02;;;2.30;;
64651;SDS011;51062;45.120;37.660;2022-09-03T10:26:39;10.52;;;1.80;;
64651;SDS011;51062;45.120;37.660;2022-09-03T10:29:11;4.47;;;1.50;;
64651;SDS011;51062;45.120;37.660;2022-09-03T10:31:59;16.13;;;1.90;;
64651;SDS011;51062;45.120;37.660;2022-09-03T10:50:43;6.43;;;1.63;;
64651;SDS011;51062;45.120;37.660;2022-09-03T11:07:51;5.68;;;2.22;;
64651;SDS011;51062;45.120;37.660;2022-09-03T11:10:42;33.63;;;3.40;;
64651;SDS011;51062;45.120;37.660;2022-09-03T11:13:13;6.05;;;1.98;;
64651;SDS011;51062;45.120;37.660;2022-09-03T11:15:48;48.63;;;4.05;;
64651;SDS011;51062;45.120;37.660;2022-09-03T11:18:31;15.85;;;2.50;;
64651;SDS011;51062;45.120;37.660;2022-09-03T11:21:04;2.97;;;1.50;;
64651;SDS011;51062;45.120;37.660;2022-09-03T11:23:36;10.65;;;2.20;;
64651;SDS011;51062;45.120;37.660;2022-09-03T11:26:14;10.68;;;2.15;;
64651;SDS011;51062;45.120;37.660;2022-09-03T11:28:46;12.95;;;2.17;;
64651;SDS011;51062;45.120;37.660;2022-09-03T11:31:32;11.27;;;2.08;;
64651;SDS011;51062;45.120;37.660;2022-09-03T11:34:15;10.03;;;1.77;;
64651;SDS011;51062;45.120;37.660;2022-09-03T11:37:05;19.23;;;2.10;;
64651;SDS011;51062;45.120;37.660;2022-09-03T11:39:42;7.03;;;1.83;;
64651;SDS011;51062;45.120;37.660;2022-09-03T11:42:09;17.60;;;2.63;;
64651;SDS011;51062;45.120;37.660;2022-09-03T11:44:48;10.73;;;2.53;;
64651;SDS011;51062;45.120;37.660;2022-09-03T11:49:48;13.05;;;2.88;;
64651;SDS011;51062;45.120;37.660;2022-09-03T11:52:28;11.20;;;2.63;;
64651;SDS011;51062;45.120;37.660;2022-09-03T11:55:05;13.27;;;2.28;;
64651;SDS011;51062;45.120;37.660;2022-09-03T11:57:33;19.63;;;3.05;;
64651;SDS011;51062;45.120;37.660;2022-09-03T12:00:13;8.45;;;1.95;;
64651;SDS011;51062;45.120;37.660;2022-09-03T12:02:54;8.02;;;2.00;;
64651;SDS011;51062;45.120;37.660;2022-09-03T12:11:16;9.55;;;2.40;;
64651;SDS011;51062;45.120;37.660;2022-09-03T12:13:53;12.50;;;2.40;;
64651;SDS011;51062;45.120;37.660;2022-09-03T12:19:43;14.10;;;2.40;;
64651;SDS011;51062;45.120;37.660;2022-09-03T12:22:21;6.80;;;1.92;;
64651;SDS011;51062;45.120;37.660;2022-09-03T12:24:49;13.95;;;1.95;;
64651;SDS011;51062;45.120;37.660;2022-09-03T12:27:23;10.38;;;2.10;;
64651;SDS011;51062;45.120;37.660;2022-09-03T12:32:24;8.98;;;2.10;;
64651;SDS011;51062;45.120;37.660;2022-09-03T12:34:52;7.95;;;1.92;;
64651;SDS011;51062;45.120;37.660;2022-09-03T12:37:22;10.77;;;2.15;;
64651;SDS011;51062;45.120;37.660;2022-09-03T12:39:53;8.13;;;1.52;;
64651;SDS011;51062;45.120;37.660;2022-09-03T12:42:27;11.30;;;2.83;;
64651;SDS011;51062;45.120;37.660;2022-09-03T12:45:04;32.65;;;3.55;;
64651;SDS011;51062;45.120;37.660;2022-09-03T12:47:40;15.60;;;2.50;;
64651;SDS011;51062;45.120;37.660;2022-09-03T12:50:11;35.08;;;4.72;;
64651;SDS011;51062;45.120;37.660;2022-09-03T12:53:00;11.48;;;2.55;;
64651;SDS011;51062;45.120;37.660;2022-09-03T12:55:32;10.45;;;2.55;;
64651;SDS011;51062;45.120;37.660;2022-09-03T12:58:04;9.55;;;3.20;;
64651;SDS011;51062;45.120;37.660;2022-09-03T13:00:32;21.77;;;2.95;;
64651;SDS011;51062;45.120;37.660;2022-09-03T13:03:05;27.05;;;2.90;;
64651;SDS011;51062;45.120;37.660;2022-09-03T13:05:35;13.25;;;2.45;;
64651;SDS011;51062;45.120;37.660;2022-09-03T13:08:27;82.55;;;6.93;;
64651;SDS011;51062;45.120;37.660;2022-09-03T13:11:00;15.82;;;2.80;;
64651;SDS011;51062;45.120;37.660;2022-09-03T13:13:30;18.83;;;2.60;;
64651;SDS011;51062;45.120;37.660;2022-09-03T13:24:41;13.70;;;2.83;;
64651;SDS011;51062;45.120;37.660;2022-09-03T13:36:18;22.90;;;3.28;;
64651;SDS011;51062;45.120;37.660;2022-09-03T13:38:59;8.50;;;1.90;;
64651;SDS011;51062;45.120;37.660;2022-09-03T13:44:10;20.00;;;3.42;;
64651;SDS011;51062;45.120;37.660;2022-09-03T13:46:51;10.70;;;2.22;;
64651;SDS011;51062;45.120;37.660;2022-09-03T13:49:38;11.93;;;2.33;;
64651;SDS011;51062;45.120;37.660;2022-09-03T13:52:33;11.18;;;2.20;;
64651;SDS011;51062;45.120;37.660;2022-09-03T14:00:25;11.68;;;2.38;;
64651;SDS011;51062;45.120;37.660;2022-09-03T14:03:11;13.65;;;3.28;;
64651;SDS011;51062;45.120;37.660;2022-09-03T14:06:01;16.02;;;2.83;;
64651;SDS011;51062;45.120;37.660;2022-09-03T14:20:02;14.00;;;2.70;;
64651;SDS011;51062;45.120;37.660;2022-09-03T14:25:34;22.27;;;3.20;;
64651;SDS011;51062;45.120;37.660;2022-09-03T14:28:14;15.68;;;2.78;;
64651;SDS011;51062;45.120;37.660;2022-09-03T14:33:42;13.38;;;2.67;;
64651;SDS011;51062;45.120;37.660;2022-09-03T14:50:49;18.67;;;2.70;;
64651;SDS011;51062;45.120;37.660;2022-09-03T14:56:32;18.35;;;2.80;;
64651;SDS011;51062;45.120;37.660;2022-09-03T14:59:14;24.40;;;3.33;;
64651;SDS011;51062;45.120;37.660;2022-09-03T15:02:23;20.83;;;3.28;;
64651;SDS011;51062;45.120;37.660;2022-09-03T15:05:08;24.23;;;2.92;;
64651;SDS011;51062;45.120;37.660;2022-09-03T15:27:36;19.98;;;4.10;;
64651;SDS011;51062;45.120;37.660;2022-09-03T15:30:20;40.15;;;6.63;;
64651;SDS011;51062;45.120;37.660;2022-09-03T15:38:04;39.92;;;4.75;;
64651;SDS011;51062;45.120;37.660;2022-09-03T15:40:55;25.77;;;5.72;;
64651;SDS011;51062;45.120;37.660;2022-09-03T15:43:26;19.60;;;6.20;;
64651;SDS011;51062;45.120;37.660;2022-09-03T15:46:05;41.42;;;9.55;;
64651;SDS011;51062;45.120;37.660;2022-09-03T15:51:28;48.42;;;13.05;;
64651;SDS011;51062;45.120;37.660;2022-09-03T15:59:11;48.20;;;12.30;;
64651;SDS011;51062;45.120;37.660;2022-09-03T16:12:35;43.17;;;8.40;;
64651;SDS011;51062;45.120;37.660;2022-09-03T16:15:29;37.75;;;9.38;;
64651;SDS011;51062;45.120;37.660;2022-09-03T16:26:17;38.78;;;11.65;;
64651;SDS011;51062;45.120;37.660;2022-09-03T16:31:20;82.72;;;21.08;;
64651;SDS011;51062;45.120;37.660;2022-09-03T16:37:03;60.60;;;9.48;;
64651;SDS011;51062;45.120;37.660;2022-09-03T16:39:44;40.45;;;8.50;;
64651;SDS011;51062;45.120;37.660;2022-09-03T16:42:25;53.00;;;9.65;;
64651;SDS011;51062;45.120;37.660;2022-09-03T16:45:02;30.73;;;7.07;;
64651;SDS011;51062;45.120;37.660;2022-09-03T16:53:36;22.55;;;3.95;;
64651;SDS011;51062;45.120;37.660;2022-09-03T17:04:41;23.63;;;3.85;;
64651;SDS011;51062;45.120;37.660;2022-09-03T17:15:48;14.68;;;3.63;;
64651;SDS011;51062;45.120;37.660;2022-09-03T17:27:09;22.77;;;4.57;;
64651;SDS011;51062;45.120;37.660;2022-09-03T17:49:51;89.18;;;30.15;;
64651;SDS011;51062;45.120;37.660;2022-09-03T17:52:35;96.05;;;30.80;;
64651;SDS011;51062;45.120;37.660;2022-09-03T17:58:10;85.72;;;29.05;;
64651;SDS011;51062;45.120;37.660;2022-09-03T18:09:19;54.63;;;18.08;;
64651;SDS011;51062;45.120;37.660;2022-09-03T18:12:03;47.22;;;15.90;;
64651;SDS011;51062;45.120;37.660;2022-09-03T18:14:58;50.95;;;15.88;;
64651;SDS011;51062;45.120;37.660;2022-09-03T18:17:53;55.88;;;16.63;;
64651;SDS011;51062;45.120;37.660;2022-09-03T18:20:24;49.75;;;17.27;;
64651;SDS011;51062;45.120;37.660;2022-09-03T18:25:56;66.10;;;19.90;;
64651;SDS011;51062;45.120;37.660;2022-09-03T18:28:48;57.53;;;19.63;;
64651;SDS011;51062;45.120;37.660;2022-09-03T18:31:38;47.78;;;17.13;;
64651;SDS011;51062;45.120;37.660;2022-09-03T18:34:27;46.58;;;15.80;;
64651;SDS011;51062;45.120;37.660;2022-09-03T18:37:32;46.20;;;15.00;;
64651;SDS011;51062;45.120;37.660;2022-09-03T18:40:22;41.42;;;16.58;;
64651;SDS011;51062;45.120;37.660;2022-09-03T18:56:14;36.50;;;10.80;;
64651;SDS011;51062;45.120;37.660;2022-09-03T19:02:08;27.65;;;9.25;;
64651;SDS011;51062;45.120;37.660;2022-09-03T19:13:52;27.83;;;8.77;;
64651;SDS011;51062;45.120;37.660;2022-09-03T19:16:49;29.35;;;9.85;;
64651;SDS011;51062;45.120;37.660;2022-09-03T19:22:35;25.80;;;8.55;;
64651;SDS011;51062;45.120;37.660;2022-09-03T19:25:21;27.48;;;9.63;;
64651;SDS011;51062;45.120;37.660;2022-09-03T19:28:12;30.08;;;8.55;;
64651;SDS011;51062;45.120;37.660;2022-09-03T19:31:11;22.35;;;7.72;;
64651;SDS011;51062;45.120;37.660;2022-09-03T19:37:10;34.58;;;6.15;;
64651;SDS011;51062;45.120;37.660;2022-09-03T19:55:04;14.15;;;4.63;;
64651;SDS011;51062;45.120;37.660;2022-09-03T19:57:51;20.52;;;5.70;;
64651;SDS011;51062;45.120;37.660;2022-09-03T20:00:41;32.13;;;10.30;;
64651;SDS011;51062;45.120;37.660;2022-09-03T20:03:26;40.50;;;14.68;;
64651;SDS011;51062;45.120;37.660;2022-09-03T20:06:12;44.55;;;18.50;;
64651;SDS011;51062;45.120;37.660;2022-09-03T20:09:01;65.70;;;22.95;;
64651;SDS011;51062;45.120;37.660;2022-09-03T20:11:51;53.58;;;22.38;;
64651;SDS011;51062;45.120;37.660;2022-09-03T20:14:21;45.38;;;15.52;;
64651;SDS011;51062;45.120;37.660;2022-09-03T20:19:49;42.35;;;11.65;;
64651;SDS011;51062;45.120;37.660;2022-09-03T20:30:19;24.67;;;8.15;;
64651;SDS011;51062;45.120;37.660;2022-09-03T20:32:53;18.90;;;7.78;;
64651;SDS011;51062;45.120;37.660;2022-09-03T20:35:45;23.40;;;7.30;;
64651;SDS011;51062;45.120;37.660;2022-09-03T20:44:12;32.88;;;8.98;;
64651;SDS011;51062;45.120;37.660;2022-09-03T20:55:19;28.15;;;11.23;;
64651;SDS011;51062;45.120;37.660;2022-09-03T20:57:53;30.27;;;10.07;;
64651;SDS011;51062;45.120;37.660;2022-09-03T21:00:31;34.33;;;16.10;;
64651;SDS011;51062;45.120;37.660;2022-09-03T21:06:25;43.25;;;17.10;;
64651;SDS011;51062;45.120;37.660;2022-09-03T21:22:38;34.15;;;9.90;;
64651;SDS011;51062;45.120;37.660;2022-09-03T21:25:24;21.60;;;8.98;;
64651;SDS011;51062;45.120;37.660;2022-09-03T21:28:00;28.52;;;7.85;;
64651;SDS011;51062;45.120;37.660;2022-09-03T21:30:35;34.15;;;8.38;;
64651;SDS011;51062;45.120;37.660;2022-09-03T21:33:05;25.77;;;7.68;;
64651;SDS011;51062;45.120;37.660;2022-09-03T21:35:38;17.00;;;6.18;;
64651;SDS011;51062;45.120;37.660;2022-09-03T21:38:15;37.67;;;11.90;;
64651;SDS011;51062;45.120;37.660;2022-09-03T21:40:54;24.55;;;8.85;;
64651;SDS011;51062;45.120;37.660;2022-09-03T21:46:20;21.60;;;6.40;;
64651;SDS011;51062;45.120;37.660;2022-09-03T21:51:26;21.38;;;5.68;;
64651;SDS011;51062;45.120;37.660;2022-09-03T21:54:15;18.00;;;5.43;;
64651;SDS011;51062;45.120;37.660;2022-09-03T22:02:39;26.05;;;5.25;;
64651;SDS011;51062;45.120;37.660;2022-09-03T22:05:06;27.10;;;5.93;;
64651;SDS011;51062;45.120;37.660;2022-09-03T22:15:25;19.10;;;5.35;;
64651;SDS011;51062;45.120;37.660;2022-09-03T22:18:00;21.17;;;5.93;;
64651;SDS011;51062;45.120;37.660;2022-09-03T22:20:40;22.55;;;5.10;;
64651;SDS011;51062;45.120;37.660;2022-09-03T22:23:19;25.85;;;5.22;;
64651;SDS011;51062;45.120;37.660;2022-09-03T22:25:51;26.15;;;5.43;;